Time;durP1;ratioP1;P1;durP2;ratioP2;P2;SDS_P1;SDS_P2;PMS_P1;PMS_P2;Temp;Humidity;BMP_temperature;BMP_pressure;BME280_temperature;BME280_humidity;BME280_pressure;Samples;Min_cycle;Max_cycle;Signal;HPM_P1;HPM_P2
2022/03/29 00:02:32;;;;;;;36.60;19.88;;;;;;;6.06;100.00;100695.97;5960176;29;20607;-92
2022/03/29 00:05:40;;;;;;;40.30;19.13;;;;;;;5.98;100.00;100693.03;5955588;29;20058;-92
2022/03/29 00:08:42;;;;;;;41.85;20.38;;;;;;;6.21;100.00;100677.13;5958795;29;20054;-92
2022/03/29 00:11:44;;;;;;;40.63;20.30;;;;;;;6.00;100.00;100678.34;5952280;29;20039;-92
2022/03/29 00:14:45;;;;;;;40.95;20.52;;;;;;;6.15;100.00;100674.91;5967045;29;20062;-92
2022/03/29 00:17:48;;;;;;;42.17;19.55;;;;;;;6.09;100.00;100675.25;5955364;29;20054;-92
2022/03/29 00:20:49;;;;;;;42.55;20.83;;;;;;;6.00;100.00;100666.31;5957464;29;20493;-92
2022/03/29 00:23:52;;;;;;;43.13;22.23;;;;;;;6.01;100.00;100665.44;5955637;29;20755;-92
2022/03/29 00:26:55;;;;;;;41.33;19.73;;;;;;;6.11;100.00;100663.16;5953043;29;20114;-92
2022/03/29 00:29:57;;;;;;;41.00;21.15;;;;;;;6.07;100.00;100659.09;5960017;29;20504;-91
2022/03/29 00:32:59;;;;;;;43.25;21.38;;;;;;;6.06;100.00;100662.56;5975140;29;20576;-92
2022/03/29 00:36:00;;;;;;;43.80;22.27;;;;;;;5.95;100.00;100665.78;5957710;29;20075;-92
2022/03/29 00:39:02;;;;;;;44.83;20.95;;;;;;;5.92;100.00;100653.06;5962916;29;20745;-92
2022/03/29 00:42:04;;;;;;;45.80;22.08;;;;;;;6.07;100.00;100651.41;5961806;29;20046;-92
2022/03/29 00:45:07;;;;;;;44.60;22.17;;;;;;;6.09;100.00;100659.00;5962830;29;20122;-92
2022/03/29 00:48:09;;;;;;;47.88;22.08;;;;;;;6.12;100.00;100651.94;5971143;29;20031;-91
2022/03/29 00:51:11;;;;;;;45.08;21.20;;;;;;;6.02;100.00;100649.09;5960620;29;20138;-92
2022/03/29 00:54:13;;;;;;;50.10;23.67;;;;;;;6.07;100.00;100645.44;5937728;29;20054;-92
2022/03/29 00:57:15;;;;;;;45.58;23.30;;;;;;;6.10;100.00;100633.22;5958658;29;20161;-92
2022/03/29 01:00:17;;;;;;;45.67;22.42;;;;;;;6.13;100.00;100645.88;5958402;29;20046;-92
2022/03/29 01:03:19;;;;;;;45.00;20.75;;;;;;;6.07;100.00;100638.53;5950592;29;20051;-92
2022/03/29 01:06:21;;;;;;;43.10;21.98;;;;;;;6.00;100.00;100634.69;5949266;29;20052;-92
2022/03/29 01:09:24;;;;;;;45.78;21.85;;;;;;;6.03;100.00;100639.63;5947908;29;20050;-92
2022/03/29 01:12:28;;;;;;;45.30;22.92;;;;;;;6.08;100.00;100629.09;5958180;29;20103;-92
2022/03/29 01:15:32;;;;;;;44.67;20.63;;;;;;;5.97;100.00;100632.28;5954007;29;20051;-92
2022/03/29 01:18:34;;;;;;;43.90;20.45;;;;;;;5.93;100.00;100626.47;5959076;29;20047;-92
2022/03/29 01:21:39;;;;;;;40.35;20.25;;;;;;;6.04;100.00;100621.56;5952557;29;20062;-92
2022/03/29 01:24:43;;;;;;;43.85;20.50;;;;;;;6.09;100.00;100621.31;5951585;29;20062;-92
2022/03/29 01:27:49;;;;;;;47.85;21.73;;;;;;;6.12;100.00;100615.16;5971054;29;20055;-92
2022/03/29 01:30:53;;;;;;;47.08;22.60;;;;;;;6.07;100.00;100618.00;5973572;29;20038;-92
2022/03/29 01:33:56;;;;;;;47.35;21.25;;;;;;;6.15;100.00;100617.53;5957254;29;20046;-92
2022/03/29 01:36:58;;;;;;;45.03;21.55;;;;;;;6.10;100.00;100617.81;5950496;29;20196;-92
2022/03/29 01:40:04;;;;;;;42.60;21.00;;;;;;;6.01;100.00;100626.88;5952821;29;20070;-92
2022/03/29 01:43:06;;;;;;;41.53;19.77;;;;;;;5.98;100.00;100621.91;5959975;29;20047;-92
2022/03/29 01:46:12;;;;;;;38.90;19.27;;;;;;;5.93;100.00;100615.34;5970544;29;20061;-92
2022/03/29 01:49:14;;;;;;;42.50;21.45;;;;;;;5.94;100.00;100609.34;5957704;29;20058;-91
2022/03/29 01:52:16;;;;;;;48.58;21.98;;;;;;;6.00;100.00;100614.13;5956260;29;20050;-92
2022/03/29 01:55:19;;;;;;;42.95;20.70;;;;;;;5.99;100.00;100607.34;5958476;29;20050;-92
2022/03/29 01:58:31;;;;;;;47.00;19.92;;;;;;;5.95;100.00;100603.28;5957343;29;20050;-92
2022/03/29 02:01:39;;;;;;;;;;;;;;;5.96;100.00;100597.22;5957091;29;20057;-92
2022/03/29 02:04:42;;;;;;;42.95;20.63;;;;;;;5.91;100.00;100591.50;5955670;29;21498;-92
2022/03/29 02:07:44;;;;;;;44.17;21.13;;;;;;;5.81;100.00;100599.75;5967952;29;20058;-92
2022/03/29 02:10:46;;;;;;;45.80;23.13;;;;;;;5.86;100.00;100599.47;5971851;29;20548;-92
2022/03/29 02:13:48;;;;;;;44.42;22.08;;;;;;;5.95;100.00;100593.00;5957292;29;20034;-92
2022/03/29 02:16:50;;;;;;;47.83;22.90;;;;;;;5.86;100.00;100601.22;5951942;29;20129;-92
2022/03/29 02:19:52;;;;;;;48.75;22.80;;;;;;;6.04;100.00;100592.47;5955115;29;20505;-91
2022/03/29 02:22:54;;;;;;;40.70;20.13;;;;;;;5.91;100.00;100592.31;5968121;29;20191;-92
2022/03/29 02:25:56;;;;;;;44.58;22.83;;;;;;;6.06;100.00;100592.38;5960177;29;20058;-93
2022/03/29 02:28:58;;;;;;;48.50;22.27;;;;;;;6.12;100.00;100592.84;5967952;29;20054;-92
2022/03/29 02:32:00;;;;;;;43.60;21.48;;;;;;;5.97;100.00;100594.56;5952477;29;20069;-92
2022/03/29 02:35:02;;;;;;;44.72;23.65;;;;;;;5.92;100.00;100585.47;5957296;29;20180;-92
2022/03/29 02:38:06;;;;;;;48.67;23.25;;;;;;;5.96;100.00;100576.66;5956877;29;20055;-92
2022/03/29 02:41:08;;;;;;;46.08;22.67;;;;;;;6.09;100.00;100579.34;5958054;29;20126;-92
2022/03/29 02:44:10;;;;;;;48.45;23.02;;;;;;;5.88;100.00;100579.66;5957135;29;20047;-92
2022/03/29 02:47:11;;;;;;;48.58;23.27;;;;;;;5.91;100.00;100576.09;5974061;29;20047;-92
2022/03/29 02:50:14;;;;;;;43.80;22.63;;;;;;;5.90;100.00;100582.16;5961726;29;20055;-92
2022/03/29 02:53:16;;;;;;;42.10;22.60;;;;;;;5.85;100.00;100573.88;5945599;29;20066;-92
2022/03/29 02:56:18;;;;;;;40.70;21.73;;;;;;;5.90;100.00;100572.69;5963571;29;20049;-92
2022/03/29 02:59:20;;;;;;;44.10;22.85;;;;;;;5.86;100.00;100572.97;5972138;29;20051;-92
2022/03/29 03:02:22;;;;;;;49.38;23.55;;;;;;;5.88;100.00;100573.69;5966193;29;20716;-92
2022/03/29 03:05:24;;;;;;;46.25;22.25;;;;;;;5.97;100.00;100573.19;5962834;29;20047;-92
2022/03/29 03:08:27;;;;;;;43.47;22.08;;;;;;;6.00;100.00;100565.31;5985821;29;20184;-93
2022/03/29 03:11:29;;;;;;;49.50;24.65;;;;;;;5.94;100.00;100570.81;5962491;29;20137;-92
2022/03/29 03:14:30;;;;;;;41.53;21.65;;;;;;;5.90;100.00;100567.56;5950375;29;20051;-91
2022/03/29 03:17:32;;;;;;;46.70;23.17;;;;;;;5.90;100.00;100569.31;5971599;29;20087;-92
2022/03/29 03:20:34;;;;;;;46.78;22.75;;;;;;;5.94;100.00;100573.38;5961468;29;20067;-92
2022/03/29 03:23:36;;;;;;;43.35;21.88;;;;;;;5.90;100.00;100575.25;5955038;29;20136;-92
2022/03/29 03:26:38;;;;;;;46.05;22.73;;;;;;;5.96;100.00;100571.53;5975892;29;20240;-92
2022/03/29 03:29:40;;;;;;;46.53;22.50;;;;;;;5.90;100.00;100562.41;5968967;29;20051;-92
2022/03/29 03:32:42;;;;;;;49.53;23.55;;;;;;;6.00;100.00;100549.88;5959091;29;20050;-92
2022/03/29 03:35:48;;;;;;;49.67;24.27;;;;;;;5.88;100.00;100546.25;5961462;29;20510;-92
2022/03/29 03:38:49;;;;;;;53.67;24.17;;;;;;;5.83;100.00;100541.38;5958709;29;20055;-92
2022/03/29 03:41:51;;;;;;;50.20;23.63;;;;;;;5.81;100.00;100542.41;5981513;29;20191;-92
2022/03/29 03:44:53;;;;;;;42.47;21.05;;;;;;;5.85;100.00;100541.31;5965892;29;20047;-92
2022/03/29 03:47:55;;;;;;;43.35;21.75;;;;;;;5.78;100.00;100542.59;5959143;29;20071;-92
2022/03/29 03:50:56;;;;;;;48.22;23.08;;;;;;;5.73;100.00;100535.16;5962425;29;20810;-92
2022/03/29 03:53:59;;;;;;;48.55;22.70;;;;;;;5.73;100.00;100545.41;5962791;29;20058;-92
2022/03/29 03:57:01;;;;;;;48.17;22.65;;;;;;;5.77;100.00;100540.94;5969836;29;20061;-92
2022/03/29 04:00:07;;;;;;;44.50;22.02;;;;;;;5.73;100.00;100535.16;5968918;29;20043;-92
2022/03/29 04:03:15;;;;;;;47.22;22.90;;;;;;;5.83;100.00;100528.56;5959330;29;20062;-92
2022/03/29 04:06:17;;;;;;;39.40;20.35;;;;;;;5.94;100.00;100532.28;5963194;29;20528;-92
2022/03/29 04:09:19;;;;;;;40.63;20.67;;;;;;;5.69;100.00;100528.56;5961918;29;20057;-92
2022/03/29 04:12:20;;;;;;;41.15;19.15;;;;;;;5.67;100.00;100530.38;5963323;29;20047;-92
2022/03/29 04:15:22;;;;;;;39.22;20.13;;;;;;;5.60;100.00;100519.63;5948326;29;20090;-92
2022/03/29 04:18:24;;;;;;;35.97;18.40;;;;;;;5.73;100.00;100514.59;5974149;29;20061;-92
2022/03/29 04:21:26;;;;;;;33.83;18.10;;;;;;;5.75;100.00;100517.91;5967763;29;20087;-92
2022/03/29 04:24:34;;;;;;;32.25;16.42;;;;;;;5.78;100.00;100507.44;5958765;29;20053;-92
2022/03/29 04:27:36;;;;;;;32.60;16.85;;;;;;;5.79;100.00;100498.84;5969356;29;20051;-92
2022/03/29 04:30:38;;;;;;;33.72;16.88;;;;;;;5.71;100.00;100493.31;5963230;29;20050;-92
2022/03/29 04:33:40;;;;;;;30.75;16.55;;;;;;;5.68;100.00;100503.78;5960976;29;20059;-92
2022/03/29 04:36:42;;;;;;;34.80;16.58;;;;;;;5.68;100.00;100501.22;5960447;29;20076;-92
2022/03/29 04:39:44;;;;;;;32.42;16.27;;;;;;;5.74;100.00;100502.56;5951116;29;20468;-91
2022/03/29 04:42:48;;;;;;;27.90;15.23;;;;;;;5.64;100.00;100504.91;5956433;29;20043;-91
2022/03/29 04:45:50;;;;;;;30.73;16.52;;;;;;;5.60;100.00;100499.09;5969651;29;20049;-92
2022/03/29 04:48:52;;;;;;;32.97;15.85;;;;;;;5.77;100.00;100487.84;5962382;29;20047;-92
2022/03/29 04:51:54;;;;;;;31.55;16.35;;;;;;;5.72;100.00;100487.28;5964421;29;20481;-92
2022/03/29 04:54:56;;;;;;;31.67;15.55;;;;;;;5.76;100.00;100486.19;5946023;29;20577;-92
2022/03/29 04:57:58;;;;;;;34.03;16.80;;;;;;;5.81;100.00;100491.03;5953173;29;20592;-92
2022/03/29 05:01:00;;;;;;;35.17;16.85;;;;;;;5.65;100.00;100478.28;5960818;29;20054;-92
2022/03/29 05:04:03;;;;;;;32.33;18.00;;;;;;;5.67;100.00;100478.22;5965334;29;20047;-92
2022/03/29 05:07:05;;;;;;;37.80;18.25;;;;;;;5.67;100.00;100479.03;5970339;29;20499;-92
2022/03/29 05:10:08;;;;;;;35.65;17.80;;;;;;;5.75;100.00;100476.00;5958523;29;20065;-92
2022/03/29 05:13:10;;;;;;;34.30;16.60;;;;;;;5.61;100.00;100475.09;5984206;29;20042;-92
2022/03/29 05:16:12;;;;;;;34.15;17.25;;;;;;;5.60;100.00;100473.41;5970662;29;20051;-92
2022/03/29 05:19:14;;;;;;;40.28;20.35;;;;;;;5.65;100.00;100478.28;5963692;29;20050;-92
2022/03/29 05:22:15;;;;;;;34.08;17.27;;;;;;;5.73;100.00;100475.25;5958340;29;20043;-92
2022/03/29 05:25:19;;;;;;;35.17;18.00;;;;;;;5.63;100.00;100477.53;5970067;29;20062;-92
2022/03/29 05:28:21;;;;;;;32.40;17.08;;;;;;;5.82;100.00;100474.72;5959055;29;20051;-91
2022/03/29 05:31:23;;;;;;;33.00;17.48;;;;;;;5.82;100.00;100470.41;5959418;29;20047;-92
2022/03/29 05:34:26;;;;;;;40.70;18.25;;;;;;;5.69;100.00;100473.78;5957070;29;20046;-92
2022/03/29 05:37:28;;;;;;;41.10;18.30;;;;;;;5.63;100.00;100474.16;5965591;29;20069;-92
2022/03/29 05:40:30;;;;;;;37.72;17.65;;;;;;;5.68;100.00;100480.66;5957533;29;20054;-92
2022/03/29 05:43:32;;;;;;;29.00;16.00;;;;;;;5.69;100.00;100481.47;5942104;29;20130;-91
2022/03/29 05:49:57;;;;;;;30.20;15.27;;;;;;;5.71;100.00;100488.19;5962498;29;20047;-92
2022/03/29 05:53:00;;;;;;;26.25;14.68;;;;;;;5.89;100.00;100491.41;5959136;29;20433;-92
2022/03/29 05:56:02;;;;;;;30.42;15.18;;;;;;;5.81;100.00;100491.88;5959148;29;20480;-92
2022/03/29 05:59:10;;;;;;;28.77;13.88;;;;;;;5.89;100.00;100490.56;5978100;29;20062;-91
2022/03/29 06:02:12;;;;;;;31.70;16.40;;;;;;;5.92;100.00;100488.66;5964081;29;20713;-91
2022/03/29 06:05:15;;;;;;;29.40;14.50;;;;;;;6.07;100.00;100492.06;5970210;29;20162;-92
2022/03/29 06:08:17;;;;;;;28.33;14.90;;;;;;;5.95;100.00;100493.63;5976557;29;20078;-92
2022/03/29 06:11:21;;;;;;;26.98;14.00;;;;;;;5.93;100.00;100494.63;5947392;29;20084;-92
2022/03/29 06:14:23;;;;;;;29.67;15.85;;;;;;;5.90;100.00;100494.81;5972536;29;20101;-92
2022/03/29 06:17:25;;;;;;;29.67;14.95;;;;;;;5.80;100.00;100495.34;5947097;29;20048;-91
2022/03/29 06:20:27;;;;;;;31.05;15.63;;;;;;;6.04;100.00;100499.97;5969403;29;20058;-92
2022/03/29 06:23:29;;;;;;;32.33;17.25;;;;;;;6.04;100.00;100492.28;5959337;29;20058;-92
2022/03/29 06:26:31;;;;;;;32.05;16.27;;;;;;;6.05;100.00;100501.63;5969741;29;20042;-92
2022/03/29 06:29:36;;;;;;;36.72;17.55;;;;;;;6.18;100.00;100501.69;5962459;29;20428;-91
2022/03/29 06:32:50;;;;;;;35.97;17.92;;;;;;;6.02;100.00;100497.50;5962970;29;20485;-92
2022/03/29 06:35:52;;;;;;;36.83;17.02;;;;;;;6.11;100.00;100501.25;5970646;29;20406;-92
2022/03/29 06:38:54;;;;;;;36.78;18.52;;;;;;;6.11;100.00;100506.41;5960180;29;20062;-92
2022/03/29 06:41:56;;;;;;;39.00;18.98;;;;;;;6.09;100.00;100495.38;5957915;29;20035;-92
2022/03/29 06:44:58;;;;;;;46.78;21.55;;;;;;;6.31;100.00;100501.75;5954912;29;20047;-92
2022/03/29 06:48:00;;;;;;;39.97;19.90;;;;;;;6.27;100.00;100493.44;5961831;29;20058;-92
2022/03/29 06:51:02;;;;;;;40.40;20.67;;;;;;;6.25;100.00;100493.50;5958077;29;20686;-91
2022/03/29 06:54:05;;;;;;;45.28;19.63;;;;;;;6.36;100.00;100495.44;5961019;29;20058;-92
2022/03/29 06:57:06;;;;;;;46.17;21.63;;;;;;;6.41;100.00;100497.69;5962101;29;20146;-91
2022/03/29 07:00:10;;;;;;;43.35;20.13;;;;;;;6.51;100.00;100491.09;5955716;29;20051;-91
2022/03/29 07:03:12;;;;;;;43.92;20.10;;;;;;;6.50;100.00;100499.72;5960683;29;20141;-91
2022/03/29 07:06:14;;;;;;;49.40;21.38;;;;;;;6.42;100.00;100500.19;5958230;29;20125;-91
2022/03/29 07:12:53;;;;;;;42.45;21.50;;;;;;;6.44;100.00;100498.34;5956833;29;20043;-91
2022/03/29 07:15:56;;;;;;;42.10;20.90;;;;;;;6.51;100.00;100497.97;5963622;29;20493;-91
2022/03/29 07:18:57;;;;;;;43.58;21.33;;;;;;;6.57;100.00;100487.31;5937670;29;20058;-91
2022/03/29 07:21:59;;;;;;;43.00;19.35;;;;;;;6.76;100.00;100495.50;5959833;29;20377;-91
2022/03/29 07:25:01;;;;;;;40.55;19.88;;;;;;;6.69;100.00;100489.09;5960672;29;20047;-91
2022/03/29 07:28:04;;;;;;;37.97;18.45;;;;;;;6.79;100.00;100484.19;5959989;29;20084;-91
2022/03/29 07:31:06;;;;;;;36.30;18.88;;;;;;;6.83;100.00;100483.91;5955272;29;20406;-91
2022/03/29 07:34:08;;;;;;;36.35;17.35;;;;;;;6.61;100.00;100481.88;5960189;29;20042;-91
2022/03/29 07:37:10;;;;;;;32.08;17.17;;;;;;;6.64;100.00;100480.84;5943262;29;20425;-91
2022/03/29 07:40:14;;;;;;;34.15;17.45;;;;;;;6.75;100.00;100480.16;5958159;29;20528;-91
2022/03/29 07:43:16;;;;;;;37.70;16.52;;;;;;;6.79;100.00;100468.75;5956045;29;20572;-91
2022/03/29 07:46:23;;;;;;;32.33;16.02;;;;;;;6.90;100.00;100464.56;5957593;29;20053;-91
2022/03/29 07:49:27;;;;;;;42.83;19.83;;;;;;;7.14;100.00;100463.91;5971947;29;20057;-91
2022/03/29 07:52:50;;;;;;;40.05;19.75;;;;;;;7.32;100.00;100461.84;5959266;29;20761;-91
2022/03/29 07:55:52;;;;;;;39.05;19.55;;;;;;;7.52;100.00;100458.75;5959477;29;20778;-91
2022/03/29 07:58:56;;;;;;;46.30;20.55;;;;;;;7.64;100.00;100464.84;5970134;29;20050;-91
2022/03/29 08:01:58;;;;;;;42.50;20.10;;;;;;;7.66;100.00;100472.50;5959073;29;20039;-91
2022/03/29 08:04:59;;;;;;;44.22;21.23;;;;;;;7.60;100.00;100470.31;5957697;29;20042;-91
2022/03/29 08:08:02;;;;;;;43.53;21.02;;;;;;;7.54;100.00;100480.09;5958295;29;20049;-91
2022/03/29 08:11:04;;;;;;;47.67;23.00;;;;;;;7.46;100.00;100469.50;5957382;29;20050;-91
2022/03/29 08:14:06;;;;;;;43.83;20.30;;;;;;;7.29;100.00;100470.59;5959831;29;20495;-91
2022/03/29 08:17:09;;;;;;;43.22;20.73;;;;;;;7.21;100.00;100461.75;5973241;29;20051;-91
2022/03/29 08:20:11;;;;;;;40.42;19.67;;;;;;;7.30;100.00;100467.13;5944941;29;20139;-91
2022/03/29 08:23:14;;;;;;;37.25;18.13;;;;;;;7.33;100.00;100468.69;5970090;29;20626;-91
2022/03/29 08:26:16;;;;;;;39.70;19.27;;;;;;;7.38;100.00;100460.63;5956079;29;20057;-91
2022/03/29 08:29:21;;;;;;;38.40;19.58;;;;;;;7.34;100.00;100462.59;5951707;29;20051;-91
2022/03/29 08:32:23;;;;;;;40.90;18.02;;;;;;;7.19;100.00;100463.59;5942150;29;20046;-91
2022/03/29 08:35:26;;;;;;;36.85;18.42;;;;;;;7.07;100.00;100463.47;5954661;29;20055;-91
2022/03/29 08:38:29;;;;;;;38.03;18.20;;;;;;;7.24;100.00;100461.53;5955407;29;20082;-91
2022/03/29 08:41:36;;;;;;;38.80;18.98;;;;;;;7.32;100.00;100462.69;5970086;29;20054;-91
2022/03/29 08:44:39;;;;;;;38.25;20.02;;;;;;;7.36;100.00;100457.34;5956614;29;20049;-91
2022/03/29 08:47:43;;;;;;;38.70;18.55;;;;;;;7.34;100.00;100454.84;5961714;29;20054;-91
2022/03/29 08:50:46;;;;;;;34.65;19.25;;;;;;;7.26;100.00;100441.69;5958278;29;20655;-91
2022/03/29 08:53:49;;;;;;;48.28;19.77;;;;;;;7.28;100.00;100442.41;5954876;29;20066;-90
2022/03/29 08:56:51;;;;;;;39.05;18.98;;;;;;;7.49;100.00;100446.09;5958111;29;20076;-91
2022/03/29 08:59:53;;;;;;;36.10;18.95;;;;;;;7.80;100.00;100446.63;5956399;29;20047;-91
2022/03/29 09:02:55;;;;;;;38.38;18.90;;;;;;;8.14;100.00;100433.94;5955173;29;20524;-91
2022/03/29 09:06:08;;;;;;;38.92;18.02;;;;;;;8.51;100.00;100428.78;5970899;29;20039;-91
2022/03/29 09:09:30;;;;;;;32.75;17.73;;;;;;;8.84;100.00;100431.50;5971696;29;20058;-91
2022/03/29 09:12:33;;;;;;;35.60;18.45;;;;;;;9.08;96.92;100430.63;5952739;29;20504;-91
2022/03/29 09:15:36;;;;;;;39.53;19.20;;;;;;;9.03;95.56;100440.47;5957669;29;20043;-91
2022/03/29 09:18:55;;;;;;;37.67;18.27;;;;;;;8.95;95.59;100438.47;5955170;29;20050;-91
2022/03/29 09:21:59;;;;;;;39.25;17.80;;;;;;;8.76;96.29;100435.56;5957816;29;20443;-91
2022/03/29 09:25:04;;;;;;;37.00;19.30;;;;;;;8.91;94.20;100431.03;5955080;29;20047;-91
2022/03/29 09:28:13;;;;;;;37.80;19.52;;;;;;;9.05;94.29;100428.28;5958109;29;20043;-91
2022/03/29 09:31:19;;;;;;;45.03;21.05;;;;;;;9.14;94.14;100430.19;5959602;29;20099;-91
2022/03/29 09:34:21;;;;;;;40.05;20.05;;;;;;;9.35;91.36;100429.50;5955552;29;20050;-91
2022/03/29 09:37:45;;;;;;;39.55;22.15;;;;;;;9.47;92.70;100426.81;5960491;29;20043;-91
2022/03/29 09:40:47;;;;;;;44.38;21.92;;;;;;;9.62;93.48;100418.84;5954233;29;20668;-91
2022/03/29 09:44:12;;;;;;;47.15;23.05;;;;;;;9.89;92.97;100411.53;5962524;29;20058;-91
2022/03/29 09:47:20;;;;;;;46.00;24.33;;;;;;;10.08;88.57;100417.84;5973406;29;20500;-91
2022/03/29 09:50:22;;;;;;;44.50;22.48;;;;;;;10.30;86.69;100422.19;5962377;29;20051;-91
2022/03/29 09:53:45;;;;;;;47.72;23.98;;;;;;;10.19;87.81;100411.84;5965780;29;20054;-91
2022/03/29 09:56:52;;;;;;;44.47;22.27;;;;;;;10.32;88.57;100413.34;5965604;29;20126;-91
2022/03/29 09:59:58;;;;;;;45.92;22.95;;;;;;;10.30;88.10;100417.00;5956908;29;20079;-91
2022/03/29 10:03:02;;;;;;;45.92;23.50;;;;;;;10.21;87.74;100404.75;5961395;29;20129;-91
2022/03/29 10:06:05;;;;;;;46.03;22.52;;;;;;;10.06;87.84;100410.22;5958097;29;20062;-91
2022/03/29 10:09:27;;;;;;;47.78;22.92;;;;;;;10.08;87.94;100405.72;5949197;29;20079;-91
2022/03/29 10:12:29;;;;;;;48.10;22.77;;;;;;;10.06;87.93;100402.47;5956793;29;20464;-91
2022/03/29 10:15:53;;;;;;;40.25;21.05;;;;;;;10.02;86.68;100400.22;5961429;29;20054;-91
2022/03/29 10:18:56;;;;;;;40.38;20.90;;;;;;;9.99;87.68;100405.66;5968877;29;20047;-91
2022/03/29 10:21:58;;;;;;;43.33;22.10;;;;;;;9.95;87.32;100396.47;5957156;29;20061;-91
2022/03/29 10:25:01;;;;;;;44.78;20.75;;;;;;;9.77;88.25;100401.34;5956913;29;20051;-91
2022/03/29 10:28:05;;;;;;;37.17;19.95;;;;;;;9.95;88.25;100389.53;5968749;29;20051;-91
2022/03/29 10:31:33;;;;;;;33.22;17.60;;;;;;;10.27;84.31;100399.09;5965378;29;20062;-90
2022/03/29 10:34:42;;;;;;;34.13;18.50;;;;;;;10.44;84.24;100388.25;5964199;29;20058;-91
2022/03/29 10:37:56;;;;;;;31.00;16.75;;;;;;;10.42;83.56;100386.75;5962197;29;20046;-91
2022/03/29 10:40:58;;;;;;;32.05;17.67;;;;;;;10.50;84.11;100382.56;5963850;29;20519;-91
2022/03/29 10:44:08;;;;;;;34.67;18.38;;;;;;;10.70;82.72;100391.31;5967109;29;20059;-91
2022/03/29 10:47:26;;;;;;;;;;;;;;;10.57;83.30;100382.91;5969989;29;20238;-91
2022/03/29 10:50:46;;;;;;;31.02;17.17;;;;;;;10.68;80.13;100380.28;5961550;29;20332;-91
2022/03/29 10:53:48;;;;;;;33.60;17.25;;;;;;;10.87;79.61;100382.16;5970095;29;20062;-91
2022/03/29 10:57:07;;;;;;;34.85;17.95;;;;;;;10.98;78.93;100371.75;5976197;29;20137;-91
2022/03/29 11:00:12;;;;;;;36.83;19.33;;;;;;;11.00;77.61;100366.41;5979264;29;20046;-91
2022/03/29 11:03:14;;;;;;;33.75;17.60;;;;;;;10.75;79.86;100362.47;5970936;29;20073;-91
2022/03/29 11:06:17;;;;;;;37.38;19.15;;;;;;;10.85;79.61;100359.94;5960752;29;20123;-91
2022/03/29 11:09:24;;;;;;;33.30;18.95;;;;;;;11.21;80.33;100356.06;5959910;29;20081;-91
2022/03/29 11:12:38;;;;;;;36.38;18.38;;;;;;;11.23;79.36;100350.72;5971034;29;20050;-91
2022/03/29 11:15:40;;;;;;;32.15;17.92;;;;;;;11.08;79.74;100353.69;5959162;29;20541;-91
2022/03/29 11:18:42;;;;;;;34.10;16.77;;;;;;;10.69;80.45;100337.91;5973216;29;20054;-91
2022/03/29 11:21:43;;;;;;;31.05;17.77;;;;;;;10.12;82.82;100332.13;5958519;29;20057;-91
2022/03/29 11:24:46;;;;;;;34.85;17.33;;;;;;;10.12;82.86;100333.91;5963255;29;20047;-91
2022/03/29 11:27:48;;;;;;;34.65;18.20;;;;;;;10.35;82.49;100327.72;5960784;29;20380;-91
2022/03/29 11:30:56;;;;;;;34.88;19.13;;;;;;;10.78;78.23;100329.38;5962863;29;20046;-91
2022/03/29 11:33:58;;;;;;;32.70;17.52;;;;;;;10.95;78.40;100332.31;5971535;29;20722;-91
2022/03/29 11:37:00;;;;;;;30.17;16.25;;;;;;;11.20;73.79;100331.91;5966616;29;20055;-91
2022/03/29 11:40:04;;;;;;;32.35;17.20;;;;;;;11.32;74.14;100331.81;5974452;29;20054;-91
2022/03/29 11:43:12;;;;;;;34.17;17.38;;;;;;;11.16;77.37;100327.13;5968130;29;20043;-91
2022/03/29 11:46:13;;;;;;;37.50;19.38;;;;;;;11.23;75.34;100320.47;5963625;29;20059;-91
2022/03/29 11:49:17;;;;;;;35.05;17.15;;;;;;;11.11;75.03;100318.91;5975907;29;20062;-91
2022/03/29 11:52:19;;;;;;;34.92;18.55;;;;;;;10.68;76.98;100312.97;5959430;29;20050;-91
2022/03/29 11:55:22;;;;;;;29.60;16.45;;;;;;;10.69;75.75;100312.00;5959858;29;20069;-90
2022/03/29 11:58:31;;;;;;;32.70;16.98;;;;;;;10.65;79.54;100302.03;5962990;29;20071;-91
2022/03/29 12:01:34;;;;;;;34.17;16.75;;;;;;;10.58;79.65;100291.38;5959915;29;20058;-91
2022/03/29 12:04:39;;;;;;;31.58;16.45;;;;;;;10.50;80.14;100284.22;5957936;29;20771;-91
2022/03/29 12:07:43;;;;;;;32.75;16.67;;;;;;;10.84;75.93;100280.63;5973428;29;20088;-91
2022/03/29 12:10:45;;;;;;;32.53;17.23;;;;;;;10.93;77.07;100282.41;5959629;29;20051;-91
2022/03/29 12:13:59;;;;;;;29.38;15.73;;;;;;;10.95;75.49;100281.34;5957045;29;20062;-91
2022/03/29 12:17:09;;;;;;;29.73;16.58;;;;;;;10.74;74.55;100276.22;5958848;29;20042;-90
2022/03/29 12:20:11;;;;;;;31.73;17.13;;;;;;;10.55;79.12;100276.91;5955091;29;20061;-91
2022/03/29 12:23:25;;;;;;;32.40;16.92;;;;;;;10.89;76.26;100271.50;5958325;29;20119;-90
2022/03/29 12:26:28;;;;;;;31.25;17.17;;;;;;;11.11;74.94;100265.34;5957242;29;20050;-91
2022/03/29 12:29:33;;;;;;;32.30;16.08;;;;;;;11.15;75.89;100261.50;5956795;29;20051;-91
2022/03/29 12:32:41;;;;;;;27.77;16.13;;;;;;;11.24;70.95;100272.06;5959082;29;20042;-92
2022/03/29 12:35:43;;;;;;;32.55;16.85;;;;;;;11.09;72.51;100250.88;5959690;29;20084;-91
2022/03/29 12:38:48;;;;;;;30.95;17.70;;;;;;;11.23;74.50;100255.69;5952774;29;20043;-90
2022/03/29 12:41:54;;;;;;;27.92;16.35;;;;;;;11.04;72.92;100247.84;5951096;29;20047;-91
2022/03/29 12:44:59;;;;;;;24.88;15.80;;;;;;;11.10;73.48;100240.38;5954038;29;20428;-91
2022/03/29 12:48:03;;;;;;;33.72;16.95;;;;;;;11.36;72.09;100235.53;5952676;29;20137;-91
2022/03/29 12:51:07;;;;;;;28.15;15.75;;;;;;;11.27;69.96;100225.16;5950894;29;20042;-91
2022/03/29 12:54:10;;;;;;;27.45;15.73;;;;;;;11.33;69.78;100220.25;5952402;29;20757;-90
2022/03/29 12:57:14;;;;;;;34.22;16.83;;;;;;;11.47;69.21;100219.03;5950131;29;20054;-91
2022/03/29 13:00:18;;;;;;;28.05;15.85;;;;;;;11.32;70.42;100210.03;5951159;29;20062;-91
2022/03/29 13:03:20;;;;;;;30.45;16.80;;;;;;;11.43;69.05;100197.78;5967292;29;20076;-90
2022/03/29 13:06:39;;;;;;;28.73;15.57;;;;;;;11.38;70.04;100196.53;5951896;29;20301;-91
2022/03/29 13:09:57;;;;;;;29.15;15.20;;;;;;;11.47;68.67;100190.53;5953598;29;20142;-91
2022/03/29 13:13:28;;;;;;;31.40;15.70;;;;;;;11.61;68.24;100184.13;5947713;29;20057;-91
2022/03/29 13:16:29;;;;;;;25.67;14.73;;;;;;;11.60;65.76;100185.06;5952668;29;20054;-91
2022/03/29 13:19:32;;;;;;;26.02;14.45;;;;;;;11.58;64.25;100180.03;5948441;29;20193;-91
2022/03/29 13:22:44;;;;;;;24.02;14.48;;;;;;;11.65;66.14;100175.13;5950279;29;20046;-90
2022/03/29 13:25:46;;;;;;;26.35;14.55;;;;;;;11.86;65.03;100167.19;5948482;29;20043;-91
2022/03/29 13:28:48;;;;;;;26.27;15.40;;;;;;;11.74;64.13;100171.72;5949849;29;20183;-91
2022/03/29 13:31:51;;;;;;;26.35;14.60;;;;;;;11.33;64.95;100152.03;5950030;29;20050;-91
2022/03/29 13:34:54;;;;;;;26.13;14.07;;;;;;;11.43;63.91;100153.72;5952580;29;20181;-90
2022/03/29 13:37:56;;;;;;;25.33;14.25;;;;;;;11.75;64.97;100154.38;5949133;29;20050;-91
2022/03/29 13:40:58;;;;;;;25.35;13.60;;;;;;;12.07;63.19;100146.28;5948830;29;20069;-90
2022/03/29 13:44:00;;;;;;;26.17;14.73;;;;;;;12.20;62.79;100146.81;5949280;29;20207;-90
2022/03/29 13:47:02;;;;;;;28.88;14.88;;;;;;;12.37;61.73;100134.06;5950299;29;20255;-90
2022/03/29 13:50:05;;;;;;;26.52;15.00;;;;;;;12.58;59.86;100139.03;5948623;29;20042;-90
2022/03/29 13:53:07;;;;;;;26.67;15.65;;;;;;;12.49;58.90;100127.72;5949500;29;20142;-90
2022/03/29 13:56:12;;;;;;;28.35;15.30;;;;;;;12.77;58.79;100122.53;5949480;29;20425;-91
2022/03/29 13:59:14;;;;;;;27.63;16.10;;;;;;;13.02;59.54;100113.22;5952010;29;20084;-91
2022/03/29 14:02:19;;;;;;;29.27;15.85;;;;;;;13.12;56.95;100108.78;5953638;29;20129;-91
2022/03/29 14:05:22;;;;;;;26.30;14.02;;;;;;;13.28;56.68;100103.75;5966124;29;20047;-91